San Diego, California
Current Conditions -  °F | °C
As of 11:51 AM on Monday 24 Nov 2014 (Local Time) from KSAN Reporting Station
Scattered Clouds Scattered Clouds  
Wind Chill: 76°   Ceiling: Unl
Heat Index: 76°   Visibility: 10mi
Dew Point: 12°   Wind: 6mph
Humidity: 9%   Direction: 290°WNW
Pressure: 30.19"   Gusts: NA
Location:  32.72°N, 117.16°W
Report Text: KSAN 241951Z 29005KT 10SM SCT250 24/M11 A3019 RMK AO2 SLP223 T02441111
Loading
Personal Weather Stations






























Interactive Weather Map New forecast layout! Learn more

10-Day Weather Forecast

Advertisements
Track Severe Weather on mobile